Airfield :
LOGIN :

Register | Disclaimer

   EN    FR    IT 

 










Legend :    VFR   Marginal VFR   IFR   Intensive IFR   Very Intensive IFR
Visi :
Ceiling :
>= 8 km
>= 3000ft
5 to 8 km
1000 to 3000 ft
1500m to 5 km
500 to 1000 ft
800 to 1500m
200 to 500 ft
< 800m
< 200 ft
Symbols :   Thunderstorms  Fog  Heavy snow  Heavy precipitations  Wind > 20 kt
SIGMETs :     Misc.  Thunderstorms  Icing  Turbulence  Mountain Waves  Volcanic Ashes






- Airport Elevation : 3006 ft
- IATA code : LEN


LELN - Leon

CURRENT METAR :
  • 241400Z 14004KT 5000 -RA BR BKN007 OVC011 05/05 Q1018

EXPIRED METARs :
  • 241330Z 16004KT 7000 -RA BKN008 BKN020 05/04 Q1018
  • 241300Z 15004KT 110V190 9999 -RA SCT012 BKN015 06/03 Q1019
  • 241230Z 16005KT 9999 SCT018 BKN027 06/03 Q1019
  • 241200Z 15004KT 090V210 9999 BKN018 BKN025 06/03 Q1019
  • 241130Z 14004KT 090V170 9999 SCT017 SCT025 06/03 Q1019

TAF TAF LELN
Valid from the 24 at 12:00 until the 24 at 21:00 UTC


241100Z 2412/2421 VRB05KT 9999 SCT016 BKN025
PROB40
TEMPO 2412/2421 BKN012



MET'MAP, your aeronautical weather chart ! - Copyright ORBIFLY December 2007 - Disclaimer

ORBIFLY MET'MAP TEAM :

Programming & Development : Alexandra Zaïnal
Concept & original design : Baudouin d'Aumeries
Assistance for programming : Marc-Olivier Méhu
Technical & hardware support : Manuel Goepfert

Contact : metmap@orbifly.com




SOURCES & CREDITS :

   NOAA